createdAt,value
2023-05-14T00:00:29.074Z,9.93
2023-05-14T00:02:55.606Z,9.92
2023-05-14T00:05:22.520Z,9.91
2023-05-14T00:07:49.230Z,9.97
2023-05-14T00:10:15.553Z,9.96
2023-05-14T00:12:41.920Z,9.92
2023-05-14T00:15:09.171Z,9.86
2023-05-14T00:17:36.354Z,9.79
2023-05-14T00:20:06.968Z,9.74
2023-05-14T00:22:34.904Z,9.75
2023-05-14T00:25:01.309Z,9.79
2023-05-14T00:27:27.670Z,9.81
2023-05-14T00:29:54.460Z,9.81
2023-05-14T00:32:21.002Z,9.93
2023-05-14T00:34:47.467Z,9.85
2023-05-14T00:37:14.126Z,9.86
2023-05-14T00:39:40.470Z,9.78
2023-05-14T00:42:06.974Z,9.82
2023-05-14T00:44:33.709Z,9.78
2023-05-14T00:47:00.678Z,9.73
2023-05-14T00:49:28.515Z,9.71
2023-05-14T00:51:55.672Z,9.68
2023-05-14T00:54:22.638Z,9.64
2023-05-14T00:56:49.184Z,9.64
2023-05-14T00:59:15.902Z,9.62
2023-05-14T01:01:42.548Z,9.64
2023-05-14T01:04:10.836Z,9.65
2023-05-14T01:06:40.311Z,9.74
2023-05-14T01:09:22.523Z,9.69
2023-05-14T01:12:01.072Z,9.83
2023-05-14T01:14:46.071Z,9.77
2023-05-14T01:17:15.725Z,9.63
2023-05-14T01:19:43.914Z,9.62
2023-05-14T01:22:11.252Z,9.64
2023-05-14T01:24:38.006Z,9.67
2023-05-14T01:27:16.935Z,9.61
2023-05-14T01:29:49.583Z,9.60
2023-05-14T01:32:17.686Z,9.58
2023-05-14T01:34:47.146Z,9.61
2023-05-14T01:37:14.191Z,9.56
2023-05-14T01:39:42.231Z,9.53
2023-05-14T01:42:09.498Z,9.51
2023-05-14T01:44:36.930Z,9.50
2023-05-14T01:47:03.515Z,9.56
2023-05-14T01:49:29.988Z,9.56
2023-05-14T01:51:56.356Z,9.65
2023-05-14T01:54:22.686Z,9.52
2023-05-14T01:56:49.009Z,9.45
2023-05-14T01:59:16.274Z,9.49
2023-05-14T02:01:42.654Z,9.45
2023-05-14T02:04:09.154Z,9.46
2023-05-14T02:06:35.908Z,9.44
2023-05-14T02:09:05.049Z,9.42
2023-05-14T02:11:31.390Z,9.34
2023-05-14T02:13:58.081Z,9.31
2023-05-14T02:16:24.464Z,9.39
2023-05-14T02:18:50.895Z,9.28
2023-05-14T02:21:17.725Z,9.30
2023-05-14T02:23:44.187Z,9.29
2023-05-14T02:26:11.004Z,9.26
2023-05-14T02:28:37.892Z,9.34
2023-05-14T02:31:04.326Z,9.33
2023-05-14T02:33:31.219Z,9.25
2023-05-14T02:35:57.722Z,9.42
2023-05-14T02:38:26.740Z,9.25
2023-05-14T02:40:53.123Z,9.19
2023-05-14T02:43:19.529Z,9.25
2023-05-14T02:45:46.168Z,9.26
2023-05-14T02:48:12.546Z,9.24
2023-05-14T02:50:38.981Z,9.26
2023-05-14T02:53:05.704Z,9.25
2023-05-14T02:55:32.574Z,9.31
2023-05-14T02:57:58.947Z,9.26
2023-05-14T03:00:26.136Z,9.40
2023-05-14T03:02:53.075Z,9.35
2023-05-14T03:05:20.190Z,9.28
2023-05-14T03:07:46.987Z,9.32
2023-05-14T03:10:13.342Z,9.27
2023-05-14T03:12:39.732Z,9.20
2023-05-14T03:15:06.832Z,9.35
2023-05-14T03:17:33.180Z,9.36
2023-05-14T03:19:59.532Z,9.23
2023-05-14T03:22:26.611Z,9.26
2023-05-14T03:24:53.022Z,9.24
2023-05-14T03:27:19.379Z,9.31
2023-05-14T03:29:45.991Z,9.24
2023-05-14T03:32:12.518Z,9.29
2023-05-14T03:34:38.921Z,9.20
2023-05-14T03:37:05.722Z,9.30
2023-05-14T03:39:32.475Z,9.35
2023-05-14T03:41:59.047Z,9.31
2023-05-14T03:44:25.560Z,9.39
2023-05-14T03:46:52.409Z,9.38
2023-05-14T03:49:18.818Z,9.37
2023-05-14T03:51:45.198Z,9.29
2023-05-14T03:54:12.051Z,9.23
2023-05-14T03:56:38.807Z,9.24
2023-05-14T03:59:05.182Z,9.19
2023-05-14T04:01:31.926Z,9.19
2023-05-14T04:03:58.358Z,9.23
2023-05-14T04:06:24.732Z,9.26
2023-05-14T04:08:51.525Z,9.21
2023-05-14T04:11:17.882Z,9.20
2023-05-14T04:13:44.214Z,9.22
2023-05-14T04:16:11.167Z,9.18
2023-05-14T04:18:37.573Z,9.23
2023-05-14T04:21:04.084Z,9.35
2023-05-14T04:23:32.166Z,9.46
2023-05-14T04:25:58.932Z,9.39
2023-05-14T04:28:25.561Z,9.34
2023-05-14T04:30:52.845Z,9.42
2023-05-14T04:33:19.169Z,9.47
2023-05-14T04:35:45.938Z,9.54
2023-05-14T04:38:14.413Z,9.51
2023-05-14T04:40:43.617Z,9.48
2023-05-14T04:43:10.947Z,9.50
2023-05-14T04:45:37.384Z,9.43
2023-05-14T04:48:04.632Z,9.47
2023-05-14T04:50:31.782Z,9.42
2023-05-14T04:52:58.154Z,9.39
2023-05-14T04:55:24.534Z,9.38
2023-05-14T04:57:51.476Z,9.33
2023-05-14T05:00:18.148Z,9.35
2023-05-14T05:02:44.654Z,9.35
2023-05-14T05:05:11.698Z,9.35
2023-05-14T05:07:38.054Z,9.39
2023-05-14T05:10:04.812Z,9.43
2023-05-14T05:12:31.622Z,9.55
2023-05-14T05:14:57.964Z,9.60
2023-05-14T05:17:25.161Z,9.59
2023-05-14T05:19:52.517Z,9.50
2023-05-14T05:22:20.443Z,9.59
2023-05-14T05:24:48.061Z,9.62
2023-05-14T05:27:16.481Z,9.73
2023-05-14T05:29:44.837Z,9.88
2023-05-14T05:32:11.198Z,9.83
2023-05-14T05:34:37.676Z,9.83
2023-05-14T05:37:06.244Z,9.70
2023-05-14T05:39:34.676Z,9.79
2023-05-14T05:42:04.918Z,9.90
2023-05-14T05:44:31.465Z,10.00
2023-05-14T05:46:58.073Z,10.06
2023-05-14T05:49:25.091Z,10.00
2023-05-14T05:51:51.750Z,10.09
2023-05-14T05:54:18.120Z,10.31
2023-05-14T05:56:44.472Z,10.33
2023-05-14T05:59:11.389Z,10.42
2023-05-14T06:01:37.926Z,10.55
2023-05-14T06:04:06.150Z,10.90
2023-05-14T06:06:33.273Z,10.79
2023-05-14T06:09:01.642Z,10.68
2023-05-14T06:11:28.951Z,10.76
2023-05-14T06:13:55.363Z,10.94
2023-05-14T06:16:21.784Z,10.95
2023-05-14T06:18:48.864Z,11.63
2023-05-14T06:21:15.656Z,10.79
2023-05-14T06:23:41.996Z,10.76
2023-05-14T06:26:08.330Z,10.81
2023-05-14T06:28:34.880Z,11.32
2023-05-14T06:31:01.252Z,11.64
2023-05-14T06:33:31.252Z,11.28
2023-05-14T06:36:05.220Z,11.33
2023-05-14T06:38:32.236Z,10.94
2023-05-14T06:40:58.676Z,11.13
2023-05-14T06:43:25.941Z,11.30
2023-05-14T06:45:52.456Z,11.54
2023-05-14T06:48:19.527Z,11.27
2023-05-14T06:50:47.413Z,11.36
2023-05-14T06:53:14.457Z,12.19
2023-05-14T06:55:41.154Z,12.41
2023-05-14T06:58:08.488Z,12.22
2023-05-14T07:00:35.341Z,12.72
2023-05-14T07:03:02.468Z,12.53
2023-05-14T07:05:29.013Z,12.92
2023-05-14T07:07:55.442Z,13.10
2023-05-14T07:10:22.673Z,12.62
2023-05-14T07:12:49.669Z,12.83
2023-05-14T07:15:16.105Z,12.70
2023-05-14T07:17:42.859Z,12.47
2023-05-14T07:20:09.747Z,12.87
2023-05-14T07:22:36.106Z,12.98
2023-05-14T07:25:02.891Z,13.06
2023-05-14T07:27:31.182Z,12.72
2023-05-14T07:29:57.521Z,12.04
2023-05-14T07:32:25.066Z,11.59
2023-05-14T07:34:52.207Z,11.25
2023-05-14T07:37:18.838Z,11.39
2023-05-14T07:39:45.213Z,11.56
2023-05-14T07:42:19.407Z,11.84
2023-05-14T07:44:51.859Z,12.11
2023-05-14T07:47:18.732Z,12.16
2023-05-14T07:49:45.074Z,12.35
2023-05-14T07:52:11.413Z,12.26
2023-05-14T07:54:38.721Z,12.32
2023-05-14T07:57:05.216Z,12.07
2023-05-14T07:59:31.994Z,12.04
2023-05-14T08:01:58.843Z,11.90
2023-05-14T08:04:25.326Z,11.82
2023-05-14T08:06:51.786Z,12.36
2023-05-14T08:09:18.494Z,12.22
2023-05-14T08:11:44.834Z,12.59
2023-05-14T08:14:11.170Z,12.47
2023-05-14T08:16:38.945Z,12.56
2023-05-14T08:19:05.533Z,12.04
2023-05-14T08:21:32.854Z,12.13
2023-05-14T08:23:59.333Z,12.50
2023-05-14T08:26:25.783Z,12.57
2023-05-14T08:28:54.072Z,11.97
2023-05-14T08:31:20.987Z,12.17
2023-05-14T08:33:47.419Z,12.53
2023-05-14T08:36:14.437Z,12.99
2023-05-14T08:38:41.957Z,13.13
2023-05-14T08:41:09.040Z,12.74
2023-05-14T08:44:07.016Z,12.76
2023-05-14T08:46:34.034Z,13.36
2023-05-14T08:49:17.182Z,14.01
2023-05-14T08:51:46.995Z,14.40
2023-05-14T08:54:18.556Z,14.31
2023-05-14T08:56:50.517Z,14.30
2023-05-14T08:59:18.475Z,15.21
2023-05-14T09:01:49.176Z,14.73
2023-05-14T09:04:19.372Z,14.53
2023-05-14T09:06:49.252Z,15.44
2023-05-14T09:09:16.182Z,16.27
2023-05-14T09:11:46.386Z,15.75
2023-05-14T09:14:12.816Z,16.12
2023-05-14T09:16:41.702Z,15.98
2023-05-14T09:19:08.878Z,13.64
2023-05-14T09:21:35.643Z,13.93
2023-05-14T09:24:01.982Z,14.31
2023-05-14T09:26:31.661Z,14.76
2023-05-14T09:29:05.405Z,14.81
2023-05-14T09:31:33.480Z,14.35
2023-05-14T09:34:00.719Z,14.89
2023-05-14T09:36:28.043Z,14.85
2023-05-14T09:38:57.803Z,15.04
2023-05-14T09:41:24.549Z,15.13
2023-05-14T09:43:51.863Z,15.26
2023-05-14T09:46:18.496Z,16.37
2023-05-14T09:48:45.951Z,15.85
2023-05-14T09:51:13.854Z,16.09
2023-05-14T09:53:41.210Z,16.56
2023-05-14T09:56:07.643Z,16.90
2023-05-14T09:58:34.418Z,16.03
2023-05-14T10:01:02.624Z,14.99
2023-05-14T10:03:30.624Z,15.29
2023-05-14T10:06:04.596Z,14.70
2023-05-14T10:08:34.808Z,15.52
2023-05-14T10:11:06.693Z,15.65
2023-05-14T10:13:39.163Z,16.35
2023-05-14T10:16:16.891Z,15.58
2023-05-14T10:18:48.393Z,16.02
2023-05-14T10:21:17.546Z,16.24
2023-05-14T10:23:44.649Z,17.17
2023-05-14T10:26:11.223Z,17.22
2023-05-14T10:28:37.804Z,18.62
2023-05-14T10:31:04.499Z,19.23
2023-05-14T10:33:30.930Z,18.92
2023-05-14T10:36:01.272Z,17.23
2023-05-14T10:38:29.791Z,17.35
2023-05-14T10:40:58.940Z,17.87
2023-05-14T10:43:27.976Z,18.12
2023-05-14T10:45:55.653Z,18.28
2023-05-14T10:48:22.222Z,19.08
2023-05-14T10:50:51.175Z,18.92
2023-05-14T10:53:18.065Z,18.52
2023-05-14T10:55:45.202Z,19.78
2023-05-14T10:58:12.240Z,20.39
2023-05-14T11:00:39.799Z,21.54
2023-05-14T11:03:07.211Z,20.66
2023-05-14T11:05:35.857Z,20.35
2023-05-14T11:08:06.204Z,19.42
2023-05-14T11:10:34.024Z,17.27
2023-05-14T11:13:00.549Z,17.10
2023-05-14T11:15:28.561Z,16.98
2023-05-14T11:17:55.260Z,16.65
2023-05-14T11:20:21.949Z,17.67
2023-05-14T11:22:51.949Z,19.36
2023-05-14T11:25:19.230Z,18.71
2023-05-14T11:27:47.255Z,19.80
2023-05-14T11:30:17.650Z,19.27
2023-05-14T11:32:46.890Z,18.17
2023-05-14T11:35:14.126Z,17.71
2023-05-14T11:37:40.710Z,17.65
2023-05-14T11:40:10.414Z,16.82
2023-05-14T11:42:37.658Z,16.66
2023-05-14T11:45:04.594Z,16.75
2023-05-14T11:47:31.730Z,17.99
2023-05-14T11:50:01.396Z,17.66
2023-05-14T11:52:27.854Z,17.22
2023-05-14T11:54:54.253Z,17.66
2023-05-14T11:57:22.701Z,17.09
2023-05-14T11:59:55.539Z,16.47
2023-05-14T12:02:23.007Z,16.73
2023-05-14T12:04:52.162Z,15.99
2023-05-14T12:07:18.856Z,16.44
2023-05-14T12:09:50.781Z,17.48
2023-05-14T12:12:22.934Z,17.30
2023-05-14T12:14:50.426Z,17.57
2023-05-14T12:17:19.300Z,17.82
2023-05-14T12:19:48.494Z,18.01
2023-05-14T12:22:17.432Z,17.88
2023-05-14T12:24:44.183Z,18.34
2023-05-14T12:27:11.181Z,17.77
2023-05-14T12:29:40.706Z,17.84
2023-05-14T12:32:09.261Z,18.18
2023-05-14T12:34:37.694Z,19.18
2023-05-14T12:37:04.951Z,18.10
2023-05-14T12:39:33.630Z,18.56
2023-05-14T12:42:00.564Z,18.42
2023-05-14T12:44:27.021Z,18.03
2023-05-14T12:46:53.680Z,18.84
2023-05-14T12:49:20.531Z,18.97
2023-05-14T12:51:46.945Z,18.28
2023-05-14T12:54:13.628Z,17.87
2023-05-14T12:56:40.504Z,18.88
2023-05-14T12:59:06.831Z,18.33
2023-05-14T13:01:33.635Z,18.77
2023-05-14T13:04:00.180Z,18.43
2023-05-14T13:06:26.677Z,19.14
2023-05-14T13:08:53.656Z,19.80
2023-05-14T13:11:20.000Z,20.01
2023-05-14T13:13:46.371Z,18.71
2023-05-14T13:16:17.163Z,18.07
2023-05-14T13:18:43.630Z,17.34
2023-05-14T13:21:10.074Z,17.94
2023-05-14T13:23:36.493Z,17.41
2023-05-14T13:26:02.950Z,17.60
2023-05-14T13:28:29.329Z,16.99
2023-05-14T13:31:09.242Z,17.01
2023-05-14T13:33:37.412Z,16.46
2023-05-14T13:36:04.495Z,16.51
2023-05-14T13:38:31.398Z,16.52
2023-05-14T13:41:01.719Z,16.21
2023-05-14T13:43:32.846Z,16.03
2023-05-14T13:45:59.664Z,16.46
2023-05-14T13:48:26.945Z,16.65
2023-05-14T13:50:54.743Z,16.82
2023-05-14T13:53:22.956Z,16.51
2023-05-14T13:55:50.525Z,16.83
2023-05-14T13:58:17.580Z,16.74
2023-05-14T14:00:43.965Z,16.68
2023-05-14T14:03:10.557Z,16.31
2023-05-14T14:05:38.017Z,16.16
2023-05-14T14:08:22.148Z,15.18
2023-05-14T14:10:50.552Z,13.97
2023-05-14T14:13:16.947Z,13.65
2023-05-14T14:15:43.685Z,13.22
2023-05-14T14:18:10.588Z,13.22
2023-05-14T14:20:36.969Z,13.15
2023-05-14T14:23:03.306Z,13.10
2023-05-14T14:25:30.055Z,13.17
2023-05-14T14:27:56.563Z,13.20
2023-05-14T14:30:22.928Z,13.21
2023-05-14T14:32:50.037Z,13.31
2023-05-14T14:35:18.210Z,13.20
2023-05-14T14:37:49.427Z,13.37
2023-05-14T14:40:16.940Z,13.45
2023-05-14T14:42:43.764Z,13.64
2023-05-14T14:45:11.489Z,13.68
2023-05-14T14:47:37.894Z,13.83
2023-05-14T14:50:05.502Z,14.06
2023-05-14T14:52:32.372Z,14.04
2023-05-14T14:54:58.793Z,14.06
2023-05-14T14:57:25.196Z,13.99
2023-05-14T14:59:51.656Z,14.20
2023-05-14T15:02:18.116Z,14.36
2023-05-14T15:04:44.988Z,14.35
2023-05-14T15:07:11.321Z,14.10
2023-05-14T15:09:37.681Z,14.00
2023-05-14T15:12:04.774Z,14.28
2023-05-14T15:14:31.166Z,14.58
2023-05-14T15:16:57.533Z,14.83
2023-05-14T15:19:24.171Z,14.82
2023-05-14T15:21:50.600Z,14.98
2023-05-14T15:24:17.033Z,15.18
2023-05-14T15:26:43.667Z,15.34
2023-05-14T15:29:10.896Z,15.96
2023-05-14T15:31:37.362Z,16.24
2023-05-14T15:34:03.957Z,16.16
2023-05-14T15:36:31.169Z,15.99
2023-05-14T15:38:57.535Z,15.16
2023-05-14T15:41:25.483Z,15.01
2023-05-14T15:43:52.173Z,14.42
2023-05-14T15:46:18.584Z,14.50
2023-05-14T15:48:45.724Z,14.57
2023-05-14T15:51:13.017Z,14.52
2023-05-14T15:53:39.356Z,14.18
2023-05-14T15:56:06.115Z,14.26
2023-05-14T15:58:32.685Z,14.28
2023-05-14T16:00:59.006Z,14.24
2023-05-14T16:03:25.447Z,14.38
2023-05-14T16:05:52.518Z,14.75
2023-05-14T16:08:18.914Z,14.75
2023-05-14T16:10:45.233Z,14.48
2023-05-14T16:13:11.868Z,14.58
2023-05-14T16:15:39.644Z,14.73
2023-05-14T16:18:06.704Z,14.92
2023-05-14T16:20:33.086Z,14.79
2023-05-14T16:22:59.432Z,15.11
2023-05-14T16:25:26.216Z,15.26
2023-05-14T16:27:52.566Z,15.38
2023-05-14T16:30:18.895Z,15.41
2023-05-14T16:32:49.103Z,15.09
2023-05-14T16:35:16.899Z,14.80
2023-05-14T16:37:43.258Z,14.46
2023-05-14T16:40:11.625Z,14.06
2023-05-14T16:42:39.034Z,13.81
2023-05-14T16:45:06.892Z,13.72
2023-05-14T16:47:33.291Z,13.58
2023-05-14T16:49:59.880Z,13.63
2023-05-14T16:52:26.241Z,13.86
2023-05-14T16:54:52.629Z,13.83
2023-05-14T16:57:19.146Z,13.89
2023-05-14T16:59:46.156Z,13.80
2023-05-14T17:02:12.466Z,13.77
2023-05-14T17:04:42.047Z,13.73
2023-05-14T17:07:08.587Z,13.55
2023-05-14T17:09:34.921Z,13.31
2023-05-14T17:12:01.622Z,13.65
2023-05-14T17:14:27.953Z,13.84
2023-05-14T17:16:54.670Z,13.83
2023-05-14T17:19:21.068Z,13.96
2023-05-14T17:21:47.429Z,14.00
2023-05-14T17:24:13.829Z,14.20
2023-05-14T17:26:40.542Z,14.13
2023-05-14T17:29:06.874Z,14.20
2023-05-14T17:31:33.265Z,14.24
2023-05-14T17:34:00.129Z,14.02
2023-05-14T17:36:28.312Z,13.68
2023-05-14T17:38:55.205Z,13.77
2023-05-14T17:41:21.547Z,13.79
2023-05-14T17:43:47.929Z,13.74
2023-05-14T17:46:14.711Z,13.72
2023-05-14T17:48:41.196Z,13.42
2023-05-14T17:51:07.561Z,13.34
2023-05-14T17:53:34.194Z,13.14
2023-05-14T17:56:00.740Z,13.22
2023-05-14T17:58:27.399Z,13.20
2023-05-14T18:00:54.147Z,13.18
2023-05-14T18:03:20.839Z,13.18
2023-05-14T18:05:47.296Z,13.11
2023-05-14T18:08:14.660Z,12.87
2023-05-14T18:10:41.047Z,12.80
2023-05-14T18:13:07.376Z,12.71
2023-05-14T18:15:35.500Z,12.66
2023-05-14T18:18:01.960Z,12.52
2023-05-14T18:20:28.347Z,12.36
2023-05-14T18:22:55.065Z,12.28
2023-05-14T18:25:21.462Z,12.35
2023-05-14T18:27:47.880Z,12.01
2023-05-14T18:30:16.105Z,11.95
2023-05-14T18:32:44.585Z,11.73
2023-05-14T18:35:11.864Z,11.50
2023-05-14T18:37:38.853Z,11.34
2023-05-14T18:40:06.846Z,11.26
2023-05-14T18:42:33.917Z,11.38
2023-05-14T18:45:00.910Z,11.43
2023-05-14T18:47:27.455Z,11.35
2023-05-14T18:49:55.667Z,11.27
2023-05-14T18:52:23.303Z,11.22
2023-05-14T18:54:50.798Z,11.21
2023-05-14T18:57:17.219Z,11.29
2023-05-14T18:59:43.894Z,11.50
2023-05-14T19:02:10.255Z,11.50
2023-05-14T19:04:50.546Z,11.38
2023-05-14T19:07:19.124Z,11.35
2023-05-14T19:09:45.526Z,11.33
2023-05-14T19:12:12.202Z,11.26
2023-05-14T19:14:38.877Z,11.25
2023-05-14T19:17:05.711Z,11.07
2023-05-14T19:19:32.517Z,11.02
2023-05-14T19:21:59.240Z,10.95
2023-05-14T19:24:25.758Z,10.84
2023-05-14T19:26:52.293Z,10.82
2023-05-14T19:29:19.301Z,10.91
2023-05-14T19:31:45.910Z,10.87
2023-05-14T19:34:12.306Z,10.89
2023-05-14T19:36:39.689Z,10.93
2023-05-14T19:39:06.023Z,10.87
2023-05-14T19:41:32.415Z,10.77
2023-05-14T19:43:58.940Z,10.77
2023-05-14T19:46:25.923Z,10.80
2023-05-14T19:48:52.316Z,10.82
2023-05-14T19:51:19.090Z,10.80
2023-05-14T19:53:45.445Z,10.78
2023-05-14T19:56:11.789Z,10.83
2023-05-14T19:58:38.517Z,10.78
2023-05-14T20:01:04.908Z,10.76
2023-05-14T20:03:32.135Z,10.69
2023-05-14T20:05:59.011Z,10.62
2023-05-14T20:08:25.395Z,10.63
2023-05-14T20:10:51.850Z,10.65
2023-05-14T20:13:18.734Z,10.65
2023-05-14T20:15:46.471Z,10.70
2023-05-14T20:18:12.940Z,10.75
2023-05-14T20:20:39.943Z,10.75
2023-05-14T20:23:06.297Z,10.75
2023-05-14T20:25:33.282Z,10.74
2023-05-14T20:28:03.326Z,10.67
2023-05-14T20:30:29.712Z,10.64
2023-05-14T20:32:56.414Z,10.60
2023-05-14T20:35:23.329Z,10.62
2023-05-14T20:37:49.958Z,10.75
2023-05-14T20:40:16.396Z,10.84
2023-05-14T20:42:43.638Z,10.73
2023-05-14T20:45:10.579Z,10.65
2023-05-14T20:47:37.179Z,10.62
2023-05-14T20:50:04.971Z,10.63
2023-05-14T20:52:31.407Z,10.58
2023-05-14T20:54:59.411Z,10.56
2023-05-14T20:57:28.483Z,10.52
2023-05-14T20:59:54.936Z,10.52
2023-05-14T21:02:21.524Z,10.51
2023-05-14T21:04:48.338Z,10.43
2023-05-14T21:07:14.707Z,10.31
2023-05-14T21:09:41.107Z,10.28
2023-05-14T21:12:08.801Z,10.24
2023-05-14T21:14:35.191Z,10.25
2023-05-14T21:17:01.550Z,10.26
2023-05-14T21:19:28.165Z,10.21
2023-05-14T21:21:54.472Z,10.19
2023-05-14T21:24:20.790Z,10.20
2023-05-14T21:26:47.591Z,10.21
2023-05-14T21:29:13.976Z,10.20
2023-05-14T21:31:40.719Z,10.27
2023-05-14T21:34:07.435Z,10.26
2023-05-14T21:36:33.818Z,10.21
2023-05-14T21:39:00.254Z,10.18
2023-05-14T21:41:27.038Z,10.16
2023-05-14T21:43:53.693Z,10.19
2023-05-14T21:46:20.216Z,10.23
2023-05-14T21:48:47.156Z,10.25
2023-05-14T21:51:13.737Z,10.22
2023-05-14T21:53:40.103Z,10.14
2023-05-14T21:56:08.487Z,10.09
2023-05-14T21:58:35.710Z,10.05
2023-05-14T22:01:02.093Z,10.20
2023-05-14T22:03:29.164Z,10.24
2023-05-14T22:05:56.141Z,10.25
2023-05-14T22:08:22.661Z,10.16
2023-05-14T22:10:49.016Z,10.22
2023-05-14T22:13:15.404Z,10.26
2023-05-14T22:15:41.782Z,10.18
2023-05-14T22:18:09.311Z,10.15
2023-05-14T22:20:35.665Z,10.17
2023-05-14T22:23:01.984Z,10.12
2023-05-14T22:25:28.695Z,10.10
2023-05-14T22:27:55.098Z,10.05
2023-05-14T22:30:21.542Z,10.14
2023-05-14T22:32:48.318Z,10.05
2023-05-14T22:35:14.765Z,10.02
2023-05-14T22:37:41.145Z,10.02
2023-05-14T22:40:10.043Z,10.08
2023-05-14T22:42:36.439Z,10.08
2023-05-14T22:45:02.961Z,9.93
2023-05-14T22:47:29.947Z,9.91
2023-05-14T22:49:56.316Z,9.92
2023-05-14T22:52:22.695Z,10.03
2023-05-14T22:54:52.218Z,10.02
2023-05-14T22:57:18.656Z,9.98
2023-05-14T22:59:45.051Z,9.93
2023-05-14T23:02:12.075Z,9.91
2023-05-14T23:04:38.514Z,9.81
2023-05-14T23:07:04.893Z,9.72
2023-05-14T23:09:31.754Z,9.66
2023-05-14T23:11:58.073Z,9.59
2023-05-14T23:14:24.400Z,9.53
2023-05-14T23:16:51.151Z,9.43
2023-05-14T23:19:17.681Z,9.35
2023-05-14T23:21:44.068Z,9.25
2023-05-14T23:24:10.773Z,9.16
2023-05-14T23:26:37.127Z,9.10
2023-05-14T23:29:03.458Z,9.01
2023-05-14T23:31:30.212Z,8.93
2023-05-14T23:33:56.965Z,8.84
2023-05-14T23:36:23.377Z,8.50
2023-05-14T23:38:50.590Z,8.43
2023-05-14T23:41:16.939Z,8.49
2023-05-14T23:43:43.257Z,8.42
2023-05-14T23:46:10.232Z,8.38
2023-05-14T23:48:36.810Z,8.31
2023-05-14T23:51:03.222Z,8.19
2023-05-14T23:53:29.939Z,8.14
2023-05-14T23:55:56.475Z,8.07
2023-05-14T23:58:22.840Z,8.00
